Lynn, Alabama
Current Conditions -  °F | °C
As of 6:56 PM on Saturday 22 Nov 2014 (Local Time) from K1M4 Reporting Station
Broken Clouds Broken Clouds  
Wind Chill: 14°   Ceiling: 3200
Heat Index: 14°   Visibility: 10mi
Dew Point:   Wind: 8mph
Humidity: 69%   Direction: 120°ESE
Pressure: 30.14"   Gusts: NA
Location:  34.05°N, 87.55°W
Report Text: K1M4 230056Z AUTO 12007KT 10SM BKN032 14/09 A3014 RMK AO2 T01440088 SLP216
Loading
Personal Weather Stations






























Interactive Weather Map New forecast layout! Learn more

10-Day Weather Forecast

Advertisements
Track Severe Weather on mobile